Time;durP1;ratioP1;P1;durP2;ratioP2;P2;SDS_P1;SDS_P2;PMS_P1;PMS_P2;Temp;Humidity;BMP_temperature;BMP_pressure;BME280_temperature;BME280_humidity;BME280_pressure;Samples;Min_cycle;Max_cycle;Signal;HPM_P1;HPM_P2
2023/02/13 00:01:51;;;;;;;90.20;50.47;;;;;;;-2.86;100.00;94758.50;5091889;28;20040;-69
2023/02/13 00:04:17;;;;;;;100.30;50.08;;;;;;;-2.82;100.00;94770.00;5092052;28;20036;-69
2023/02/13 00:06:46;;;;;;;93.50;48.88;;;;;;;-2.80;100.00;94763.16;5092022;28;20085;-69
2023/02/13 00:09:13;;;;;;;97.50;49.22;;;;;;;-2.77;100.00;94768.03;5091823;28;20066;-69
2023/02/13 00:11:40;;;;;;;101.93;56.50;;;;;;;-2.72;100.00;94760.19;5091594;28;20048;-69
2023/02/13 00:14:06;;;;;;;105.45;59.03;;;;;;;-2.75;100.00;94762.88;5091509;28;20608;-68
2023/02/13 00:16:35;;;;;;;95.00;52.88;;;;;;;-2.74;100.00;94767.84;5091601;28;20512;-68
2023/02/13 00:19:01;;;;;;;90.85;51.45;;;;;;;-2.71;100.00;94771.88;5091306;28;20044;-68
2023/02/13 00:21:28;;;;;;;98.65;53.53;;;;;;;-2.73;100.00;94766.13;5091442;28;20098;-68
2023/02/13 00:23:55;;;;;;;94.25;53.58;;;;;;;-2.71;100.00;94765.16;5075210;28;20045;-69
2023/02/13 00:26:21;;;;;;;95.63;52.28;;;;;;;-2.72;100.00;94770.25;5091703;28;20100;-69
2023/02/13 00:28:48;;;;;;;97.63;54.78;;;;;;;-2.71;100.00;94765.16;5091490;28;20463;-69
2023/02/13 00:31:17;;;;;;;98.70;53.90;;;;;;;-2.71;100.00;94761.81;5091613;28;20102;-69
2023/02/13 00:33:45;;;;;;;93.18;51.03;;;;;;;-2.72;100.00;94767.75;5091181;28;20044;-69
2023/02/13 00:36:14;;;;;;;98.07;52.60;;;;;;;-2.71;100.00;94769.34;5089927;28;20051;-69
2023/02/13 00:38:41;;;;;;;92.43;52.60;;;;;;;-2.72;100.00;94777.81;5091477;28;20109;-69
2023/02/13 00:41:09;;;;;;;97.47;56.00;;;;;;;-2.72;100.00;94780.31;5088014;28;20532;-69
2023/02/13 00:43:36;;;;;;;86.53;51.35;;;;;;;-2.72;100.00;94785.34;5091433;28;20109;-69
2023/02/13 00:46:03;;;;;;;95.68;54.08;;;;;;;-2.73;100.00;94766.94;5090914;28;20415;-69
2023/02/13 00:48:32;;;;;;;90.72;52.17;;;;;;;-2.82;100.00;94770.78;5091341;28;20044;-69
2023/02/13 00:51:00;;;;;;;97.13;54.78;;;;;;;-2.91;100.00;94761.28;5091067;28;20100;-69
2023/02/13 00:53:27;;;;;;;96.82;53.80;;;;;;;-2.85;100.00;94768.47;5090893;28;20094;-69
2023/02/13 00:55:54;;;;;;;93.47;55.75;;;;;;;-2.73;100.00;94781.22;5091111;28;20404;-69
2023/02/13 00:58:22;;;;;;;94.80;54.03;;;;;;;-2.71;100.00;94779.41;5091034;28;20044;-69
2023/02/13 01:00:49;;;;;;;89.05;50.40;;;;;;;-2.72;100.00;94785.34;5090820;28;20047;-69
2023/02/13 01:03:16;;;;;;;107.05;60.35;;;;;;;-2.79;100.00;94786.63;5089982;28;20557;-69
2023/02/13 01:05:44;;;;;;;135.43;65.72;;;;;;;-2.74;100.00;94787.16;5070839;28;20405;-69
2023/02/13 01:08:13;;;;;;;124.18;61.05;;;;;;;-2.75;100.00;94780.50;5085018;28;20048;-69
2023/02/13 01:10:41;;;;;;;112.55;57.67;;;;;;;-2.67;100.00;94790.94;5090678;28;20113;-69
2023/02/13 01:13:08;;;;;;;136.63;65.18;;;;;;;-2.71;100.00;94792.81;5090362;28;20109;-69
2023/02/13 01:15:35;;;;;;;134.25;62.03;;;;;;;-2.67;100.00;94785.06;5090316;28;20044;-69
2023/02/13 01:18:02;;;;;;;125.85;60.95;;;;;;;-2.68;100.00;94786.81;5090669;28;20101;-69
2023/02/13 01:20:30;;;;;;;132.00;62.97;;;;;;;-2.66;100.00;94790.03;5090296;28;20558;-69
2023/02/13 01:22:58;;;;;;;127.95;63.28;;;;;;;-2.82;100.00;94768.28;5090708;28;20048;-69
2023/02/13 01:25:27;;;;;;;171.63;80.97;;;;;;;-2.69;100.00;94783.47;5090318;28;20044;-69
2023/02/13 01:27:53;;;;;;;131.38;60.28;;;;;;;-2.67;100.00;94790.94;5089847;28;20040;-69
2023/02/13 01:30:20;;;;;;;131.35;60.50;;;;;;;-2.75;100.00;94788.03;5090427;28;20036;-69
2023/02/13 01:32:48;;;;;;;141.88;67.43;;;;;;;-2.74;100.00;94782.13;5090176;28;20101;-69
2023/02/13 01:35:16;;;;;;;140.88;64.22;;;;;;;-2.96;100.00;94784.16;5089971;28;20044;-69
2023/02/13 01:37:43;;;;;;;130.75;57.83;;;;;;;-3.16;100.00;94764.38;5090178;28;20089;-69
2023/02/13 01:40:12;;;;;;;158.13;69.85;;;;;;;-3.06;100.00;94784.78;5089497;28;20044;-69
2023/02/13 01:42:41;;;;;;;151.45;69.05;;;;;;;-3.10;100.00;94789.19;5089831;28;20249;-69
2023/02/13 01:45:22;;;;;;;122.05;59.38;;;;;;;-3.07;100.00;94788.97;5090098;28;20133;-69
2023/02/13 01:47:52;;;;;;;124.57;59.25;;;;;;;-3.06;100.00;94792.31;5089314;28;20420;-69
2023/02/13 01:50:23;;;;;;;144.73;66.85;;;;;;;-3.09;100.00;94789.06;5090079;28;20483;-69
2023/02/13 01:52:53;;;;;;;125.07;58.55;;;;;;;-3.02;100.00;94788.75;5089550;28;20056;-69
2023/02/13 01:55:20;;;;;;;133.77;61.67;;;;;;;-3.06;100.00;94795.63;5090177;28;20052;-69
2023/02/13 01:57:53;;;;;;;148.20;62.70;;;;;;;-3.16;100.00;94764.38;5089742;28;20044;-69
2023/02/13 02:00:21;;;;;;;131.98;60.80;;;;;;;-3.06;100.00;94794.84;5089256;28;20558;-69
2023/02/13 02:02:55;;;;;;;163.43;75.20;;;;;;;-3.18;100.00;94792.13;5089499;28;20040;-69
2023/02/13 02:05:26;;;;;;;163.63;68.82;;;;;;;-3.05;100.00;94789.72;5089359;28;20132;-69
2023/02/13 02:07:54;;;;;;;180.43;75.78;;;;;;;-2.96;100.00;94795.94;5089525;28;20044;-69
2023/02/13 02:10:21;;;;;;;154.75;74.53;;;;;;;-3.09;100.00;94799.13;5089492;28;20052;-69
2023/02/13 02:12:53;;;;;;;132.40;61.53;;;;;;;-3.02;100.00;94801.31;5076117;28;20048;-69
2023/02/13 02:15:21;;;;;;;132.98;60.67;;;;;;;-3.35;100.00;94795.56;5089612;28;20955;-69
2023/02/13 02:17:47;;;;;;;122.30;57.95;;;;;;;-3.44;100.00;94799.38;5089051;28;20054;-69
2023/02/13 02:20:30;;;;;;;120.82;59.13;;;;;;;-3.51;100.00;94801.41;5089229;28;20541;-69
2023/02/13 02:23:31;;;;;;;137.55;62.40;;;;;;;-3.46;100.00;94796.16;5089456;28;20416;-69
2023/02/13 02:26:43;;;;;;;158.95;72.25;;;;;;;-3.49;100.00;94809.69;5089553;28;21099;-69
2023/02/13 02:29:51;;;;;;;152.05;70.15;;;;;;;-3.43;100.00;94795.19;5026449;28;20041;-69
2023/02/13 02:32:30;;;;;;;147.18;70.72;;;;;;;-3.25;100.00;94806.72;5055316;28;20048;-69
2023/02/13 02:35:12;;;;;;;156.90;67.90;;;;;;;-3.16;100.00;94807.91;5088599;28;20048;-69
2023/02/13 02:38:02;;;;;;;150.32;71.65;;;;;;;-3.05;100.00;94809.00;5089246;28;20051;-69
2023/02/13 02:40:38;;;;;;;152.95;70.60;;;;;;;-2.97;100.00;94800.13;5062151;28;20102;-69
2023/02/13 02:43:19;;;;;;;138.55;63.50;;;;;;;-2.88;100.00;94801.31;5088745;28;20048;-69
2023/02/13 02:45:53;;;;;;;140.88;64.95;;;;;;;-2.84;100.00;94812.81;5089507;28;20458;-69
2023/02/13 02:51:21;;;;;;;128.35;61.85;;;;;;;-2.77;100.00;94808.28;5089457;28;20117;-69
2023/02/13 02:54:01;;;;;;;132.38;64.85;;;;;;;-2.69;100.00;94815.34;5089159;28;20121;-69
2023/02/13 02:56:35;;;;;;;138.25;67.25;;;;;;;-2.63;100.00;94811.69;5089222;28;20509;-69
2023/02/13 03:07:25;;;;;;;140.52;64.32;;;;;;;-2.52;100.00;94816.91;5092779;28;20048;-69
2023/02/13 03:15:28;;;;;;;145.40;62.88;;;;;;;-2.49;100.00;94818.44;5085703;28;20052;-69
2023/02/13 03:23:45;;;;;;;146.32;65.78;;;;;;;-2.67;100.00;94807.72;5093090;28;20059;-69
2023/02/13 03:26:44;;;;;;;140.48;65.18;;;;;;;-2.52;100.00;94821.09;5092376;28;20554;-69
2023/02/13 03:32:09;;;;;;;142.30;68.63;;;;;;;-2.44;100.00;94818.97;5091978;28;20089;-69
2023/02/13 03:40:23;;;;;;;145.18;69.90;;;;;;;-2.30;100.00;94825.72;5092728;28;20141;-69
2023/02/13 03:42:55;;;;;;;147.52;66.85;;;;;;;-2.26;100.00;94823.81;5091874;28;20562;-69
2023/02/13 03:50:04;;;;;;;139.38;63.70;;;;;;;-2.22;100.00;94817.72;5092097;28;20905;-69
2023/02/13 03:51:20;;;;;;;147.17;65.43;;;;;;;-2.16;100.00;94830.72;5092345;28;20067;-69
2023/02/13 03:53:54;;;;;;;137.93;67.88;;;;;;;-2.14;100.00;94828.13;5092364;28;20044;-69
2023/02/13 03:59:18;;;;;;;157.15;71.35;;;;;;;-2.05;100.00;94825.06;5091537;28;20052;-69
2023/02/13 04:01:59;;;;;;;152.88;74.20;;;;;;;-2.06;100.00;94820.94;5092575;28;20470;-69
2023/02/13 04:04:35;;;;;;;180.55;84.97;;;;;;;-2.06;100.00;94825.97;5091641;28;20048;-69
2023/02/13 04:07:05;;;;;;;170.70;81.53;;;;;;;-2.01;100.00;94828.19;5091950;28;20044;-69
2023/02/13 04:09:36;;;;;;;188.55;85.13;;;;;;;-2.00;100.00;94824.78;5091982;28;20043;-69
2023/02/13 04:12:12;;;;;;;162.93;75.63;;;;;;;-1.96;100.00;94830.44;5091557;28;20519;-69
2023/02/13 04:14:43;;;;;;;168.73;77.25;;;;;;;-1.97;100.00;94832.16;5091845;28;20044;-69
2023/02/13 04:17:16;;;;;;;173.32;77.85;;;;;;;-2.09;100.00;94813.53;5091363;28;20134;-69
2023/02/13 04:19:43;;;;;;;163.82;77.72;;;;;;;-1.99;100.00;94833.16;5091921;28;20086;-69
2023/02/13 04:22:12;;;;;;;164.30;77.53;;;;;;;-1.98;100.00;94828.03;5091101;28;20557;-69
2023/02/13 04:24:40;;;;;;;161.23;78.22;;;;;;;-1.97;100.00;94832.16;5091653;28;20096;-69
2023/02/13 04:27:07;;;;;;;153.82;73.43;;;;;;;-1.93;100.00;94832.78;5091658;28;20090;-69
2023/02/13 04:29:34;;;;;;;162.38;76.72;;;;;;;-1.95;100.00;94835.38;5091445;28;20044;-69
2023/02/13 04:32:01;;;;;;;151.75;74.72;;;;;;;-1.89;100.00;94829.19;5091319;28;20036;-69
2023/02/13 04:34:27;;;;;;;153.60;75.55;;;;;;;-1.82;100.00;94832.09;5091573;28;20533;-69
2023/02/13 04:36:54;;;;;;;158.23;74.35;;;;;;;-1.81;100.00;94828.72;5091129;28;20044;-69
2023/02/13 04:39:21;;;;;;;150.63;69.05;;;;;;;-1.82;100.00;94832.94;5091074;28;20048;-69
2023/02/13 04:41:49;;;;;;;143.80;68.10;;;;;;;-1.86;100.00;94818.91;5091108;28;20044;-69
2023/02/13 04:44:15;;;;;;;152.73;69.13;;;;;;;-1.81;100.00;94831.22;5091256;28;20051;-69
2023/02/13 04:46:42;;;;;;;187.73;84.97;;;;;;;-1.85;100.00;94830.59;5091626;28;20044;-69
2023/02/13 04:49:10;;;;;;;129.57;65.53;;;;;;;-1.88;100.00;94834.13;5091170;28;20052;-69
2023/02/13 04:51:37;;;;;;;130.82;64.88;;;;;;;-1.87;100.00;94827.38;5090940;28;20090;-69
2023/02/13 04:54:04;;;;;;;129.27;64.03;;;;;;;-1.86;100.00;94826.44;5091268;28;20105;-69
2023/02/13 04:56:31;;;;;;;149.57;71.32;;;;;;;-1.80;100.00;94835.38;5085182;28;20098;-69
2023/02/13 04:58:59;;;;;;;168.75;83.93;;;;;;;-1.80;100.00;94823.56;5082995;28;20040;-69
2023/02/13 05:01:26;;;;;;;187.52;86.05;;;;;;;-1.76;100.00;94827.50;5090962;28;20048;-69
2023/02/13 05:03:52;;;;;;;157.73;77.40;;;;;;;-1.73;100.00;94833.28;5087403;28;20496;-69
2023/02/13 05:06:19;;;;;;;158.65;76.80;;;;;;;-1.70;100.00;94828.03;5087822;28;20517;-69
2023/02/13 05:08:46;;;;;;;156.93;74.40;;;;;;;-1.66;100.00;94832.00;5089686;28;20094;-69
2023/02/13 05:11:12;;;;;;;150.52;72.13;;;;;;;-1.67;100.00;94833.69;5090721;28;20446;-69
2023/02/13 05:13:39;;;;;;;145.57;71.53;;;;;;;-1.68;100.00;94839.66;5090738;28;20056;-70
2023/02/13 05:16:07;;;;;;;146.07;75.50;;;;;;;-1.67;100.00;94840.47;5090348;28;20505;-70
2023/02/13 05:18:34;;;;;;;149.32;74.85;;;;;;;-1.63;100.00;94849.44;5090165;28;20085;-70
2023/02/13 05:23:45;;;;;;;126.03;64.60;;;;;;;-1.61;100.00;94843.41;5089373;28;20499;-69
2023/02/13 05:26:11;;;;;;;89.22;50.55;;;;;;;-1.68;100.00;94846.38;5090463;28;20523;-70
2023/02/13 05:31:23;;;;;;;85.57;46.17;;;;;;;-1.97;100.00;94849.78;5090440;28;20058;-69
2023/02/13 05:33:50;;;;;;;76.95;43.33;;;;;;;-2.09;100.00;94846.28;5089848;28;20101;-69
2023/02/13 05:36:17;;;;;;;74.25;41.60;;;;;;;-2.12;100.00;94849.00;5090399;28;20117;-69
2023/02/13 05:38:44;;;;;;;84.22;46.08;;;;;;;-2.11;100.00;94844.75;5089994;28;20044;-69
2023/02/13 05:41:12;;;;;;;94.15;49.67;;;;;;;-2.13;100.00;94849.88;5089846;28;20070;-69
2023/02/13 05:43:39;;;;;;;87.15;45.60;;;;;;;-2.06;100.00;94852.84;5090315;28;20048;-69
2023/02/13 05:46:07;;;;;;;77.95;43.10;;;;;;;-1.97;100.00;94859.84;5090138;28;20443;-69
2023/02/13 05:48:36;;;;;;;77.13;41.08;;;;;;;-1.88;100.00;94858.50;5090168;28;20048;-69
2023/02/13 05:51:02;;;;;;;76.18;41.35;;;;;;;-1.80;100.00;94860.56;5089918;28;20094;-69
2023/02/13 05:53:29;;;;;;;71.40;39.38;;;;;;;-1.77;100.00;94861.16;5089588;28;20504;-69
2023/02/13 05:55:56;;;;;;;74.68;40.42;;;;;;;-1.74;100.00;94857.66;5090042;28;20054;-69
2023/02/13 05:58:23;;;;;;;68.68;39.80;;;;;;;-1.72;100.00;94863.41;5090123;28;20101;-69
2023/02/13 06:00:49;;;;;;;70.20;38.13;;;;;;;-1.64;100.00;94873.03;5089219;28;20056;-69
2023/02/13 06:03:16;;;;;;;73.90;40.15;;;;;;;-1.63;100.00;94872.94;5089901;28;20134;-69
2023/02/13 06:05:44;;;;;;;67.20;38.70;;;;;;;-1.58;100.00;94876.88;5089527;28;20048;-67
2023/02/13 06:08:11;;;;;;;71.10;39.40;;;;;;;-1.59;100.00;94875.28;5089206;28;20086;-67
2023/02/13 06:10:38;;;;;;;78.72;41.45;;;;;;;-1.66;100.00;94875.63;5089217;28;20117;-67
2023/02/13 06:13:05;;;;;;;75.13;39.78;;;;;;;-1.68;100.00;94877.44;5089398;28;20090;-67
2023/02/13 06:15:31;;;;;;;67.05;37.42;;;;;;;-1.67;100.00;94878.25;5088995;28;20040;-67
2023/02/13 06:17:58;;;;;;;73.68;40.70;;;;;;;-1.64;100.00;94878.88;5089494;28;20078;-67
2023/02/13 06:20:25;;;;;;;78.10;42.05;;;;;;;-1.55;100.00;94879.22;5089069;28;20491;-67
2023/02/13 06:22:53;;;;;;;80.30;42.78;;;;;;;-1.51;100.00;94876.44;5089724;28;20048;-67
2023/02/13 06:25:20;;;;;;;74.05;41.33;;;;;;;-1.45;100.00;94879.47;5088952;28;20048;-67
2023/02/13 06:27:47;;;;;;;78.53;44.42;;;;;;;-1.38;100.00;94881.50;5089434;28;20415;-67
2023/02/13 06:30:15;;;;;;;85.85;46.50;;;;;;;-1.35;100.00;94886.38;5085803;28;20089;-67
2023/02/13 06:32:42;;;;;;;80.93;44.97;;;;;;;-1.30;100.00;94886.06;5087421;28;20052;-67
2023/02/13 06:35:09;;;;;;;79.72;42.28;;;;;;;-1.23;100.00;94883.97;5087512;28;20051;-67
2023/02/13 06:37:36;;;;;;;71.07;40.17;;;;;;;-1.21;100.00;94892.25;5088936;28;20040;-67
2023/02/13 06:40:05;;;;;;;84.35;45.15;;;;;;;-1.24;100.00;94895.78;5089057;28;20086;-67
2023/02/13 06:42:31;;;;;;;70.88;41.53;;;;;;;-1.25;100.00;94898.41;5088928;28;20504;-67
2023/02/13 06:44:58;;;;;;;82.22;42.75;;;;;;;-1.21;100.00;94893.06;5089120;28;20096;-67
2023/02/13 06:47:25;;;;;;;94.78;54.80;;;;;;;-1.10;100.00;94901.69;5088798;28;20101;-67
2023/02/13 06:49:51;;;;;;;79.43;44.83;;;;;;;-1.00;100.00;94896.88;5089028;28;20036;-67
2023/02/13 06:52:18;;;;;;;65.20;35.95;;;;;;;-1.18;100.00;94898.81;5089060;28;20048;-67
2023/02/13 06:54:45;;;;;;;78.38;43.67;;;;;;;-1.34;100.00;94899.78;5088635;28;20080;-67
2023/02/13 06:57:13;;;;;;;71.20;39.13;;;;;;;-1.26;100.00;94891.72;5088784;28;20462;-67
2023/02/13 06:59:40;;;;;;;71.88;40.85;;;;;;;-1.34;100.00;94899.78;5088685;28;20438;-67
2023/02/13 07:02:06;;;;;;;76.20;43.75;;;;;;;-1.46;100.00;94896.28;5088889;28;20048;-67
2023/02/13 07:04:33;;;;;;;66.47;37.25;;;;;;;-1.48;100.00;94888.81;5089114;28;20048;-67
2023/02/13 07:07:00;;;;;;;77.03;43.38;;;;;;;-1.70;100.00;94894.38;5088705;28;20565;-67
2023/02/13 07:09:27;;;;;;;87.03;48.80;;;;;;;-1.58;100.00;94892.00;5088842;28;20044;-67
2023/02/13 07:11:53;;;;;;;69.85;39.83;;;;;;;-1.53;100.00;94885.78;5088625;28;20101;-67
2023/02/13 07:14:21;;;;;;;74.10;41.67;;;;;;;-1.52;100.00;94884.06;5089052;28;20188;-67
2023/02/13 07:16:48;;;;;;;112.55;63.13;;;;;;;-1.49;100.00;94886.38;5074941;28;20125;-67
2023/02/13 07:19:15;;;;;;;75.05;42.42;;;;;;;-1.50;100.00;94885.59;5088761;28;20459;-67
2023/02/13 07:21:41;;;;;;;65.82;36.45;;;;;;;-1.61;100.00;94885.44;5088377;28;20454;-67
2023/02/13 07:24:08;;;;;;;65.93;36.97;;;;;;;-1.71;100.00;94877.63;5078619;28;21039;-67
2023/02/13 07:26:35;;;;;;;72.18;41.50;;;;;;;-1.40;100.00;94892.56;5085853;28;20081;-67
2023/02/13 07:29:04;;;;;;;67.47;40.08;;;;;;;-1.29;100.00;94892.72;5088561;28;20040;-67
2023/02/13 07:31:33;;;;;;;70.82;40.08;;;;;;;-1.17;100.00;94897.94;5089137;28;20075;-67
2023/02/13 07:33:59;;;;;;;64.32;37.20;;;;;;;-1.02;100.00;94898.69;5062610;28;20077;-67
2023/02/13 07:36:26;;;;;;;63.53;37.72;;;;;;;-0.92;100.00;94899.72;5085732;28;20044;-67
2023/02/13 07:38:53;;;;;;;87.15;51.20;;;;;;;-0.85;100.00;94900.94;5086109;28;20048;-67
2023/02/13 07:41:20;;;;;;;76.13;43.28;;;;;;;-0.77;100.00;94905.50;5088091;28;20097;-67
2023/02/13 07:43:47;;;;;;;69.40;39.08;;;;;;;-0.65;100.00;94903.91;5088053;28;20093;-67
2023/02/13 07:46:13;;;;;;;75.40;42.55;;;;;;;-0.71;100.00;94906.81;5090569;28;20434;-67
2023/02/13 07:48:41;;;;;;;64.13;37.00;;;;;;;-0.94;100.00;94904.03;5092104;28;20624;-67
2023/02/13 07:51:08;;;;;;;70.20;39.47;;;;;;;-0.98;100.00;94897.56;5092013;28;20051;-67
2023/02/13 07:53:35;;;;;;;66.95;38.28;;;;;;;-0.82;100.00;94905.00;5091727;28;20089;-67
2023/02/13 07:56:06;;;;;;;73.95;39.00;;;;;;;-0.75;100.00;94885.22;5091868;28;20040;-67
2023/02/13 07:58:33;;;;;;;73.53;40.42;;;;;;;-0.55;100.00;94899.88;5092277;28;20044;-67
2023/02/13 08:01:06;;;;;;;65.63;38.10;;;;;;;-0.48;100.00;94905.34;5092366;28;20492;-67
2023/02/13 08:03:32;;;;;;;60.55;35.45;;;;;;;-0.87;100.00;94902.78;5071965;28;20102;-67
2023/02/13 08:06:01;;;;;;;72.45;39.60;;;;;;;-0.76;100.00;94904.59;5084644;28;20052;-67
2023/02/13 08:08:27;;;;;;;65.57;37.65;;;;;;;-0.70;100.00;94913.47;5073184;28;20541;-67
2023/02/13 08:13:39;;;;;;;72.03;41.25;;;;;;;-0.78;100.00;94906.44;5091622;28;20075;-67
2023/02/13 08:16:06;;;;;;;73.78;40.65;;;;;;;-0.59;100.00;94900.19;5091907;28;20036;-67
2023/02/13 08:18:33;;;;;;;68.95;38.33;;;;;;;-0.70;100.00;94901.69;5091421;28;20073;-67
2023/02/13 08:21:02;;;;;;;76.78;41.80;;;;;;;-0.48;100.00;94907.06;5091375;28;20565;-67
2023/02/13 08:23:29;;;;;;;73.25;39.33;;;;;;;-0.33;100.00;94907.81;5091973;28;20059;-67
2023/02/13 08:26:00;;;;;;;74.85;41.38;;;;;;;-0.22;100.00;94909.59;5092053;28;20048;-67
2023/02/13 08:28:27;;;;;;;67.07;37.65;;;;;;;-0.06;100.00;94904.34;5091467;28;20044;-67
2023/02/13 08:30:53;;;;;;;70.32;40.28;;;;;;;0.06;100.00;94906.06;5091454;28;20048;-68
2023/02/13 08:33:20;;;;;;;62.97;36.47;;;;;;;0.04;100.00;94904.56;5090745;28;20097;-68
2023/02/13 08:35:47;;;;;;;62.30;36.72;;;;;;;-0.18;100.00;94904.25;5091042;28;20048;-68
2023/02/13 08:38:15;;;;;;;65.55;37.92;;;;;;;-0.25;100.00;94904.75;5091167;28;20044;-68
2023/02/13 08:40:42;;;;;;;83.80;44.75;;;;;;;-0.78;100.00;94896.34;5091532;28;20125;-68
2023/02/13 08:43:08;;;;;;;90.65;48.13;;;;;;;-0.72;100.00;94902.69;5090573;28;20101;-68
2023/02/13 08:45:35;;;;;;;66.32;38.33;;;;;;;-1.01;100.00;94885.16;5091512;28;20048;-68
2023/02/13 08:48:03;;;;;;;65.80;36.45;;;;;;;-1.00;100.00;94892.66;5091497;28;20093;-68
2023/02/13 08:50:30;;;;;;;70.57;40.00;;;;;;;-1.11;100.00;94887.47;5091565;28;20070;-68
2023/02/13 08:52:58;;;;;;;70.28;40.50;;;;;;;-1.04;100.00;94887.88;5090646;28;20044;-68
2023/02/13 08:55:27;;;;;;;68.30;39.75;;;;;;;-0.90;100.00;94895.38;5091048;28;20056;-68
2023/02/13 08:57:54;;;;;;;75.35;41.97;;;;;;;-0.76;100.00;94886.94;5089686;28;20054;-68
2023/02/13 09:00:21;;;;;;;71.70;42.65;;;;;;;-0.50;100.00;94893.72;5090767;28;20098;-68
2023/02/13 09:02:48;;;;;;;75.78;42.05;;;;;;;-0.33;100.00;94905.28;5090411;28;20044;-68
2023/02/13 09:05:15;;;;;;;80.82;45.08;;;;;;;-0.15;100.00;94908.28;5091052;28;20048;-68
2023/02/13 09:07:42;;;;;;;67.30;37.95;;;;;;;-0.03;100.00;94907.50;5087652;28;20040;-68
2023/02/13 09:10:09;;;;;;;76.85;42.70;;;;;;;0.13;100.00;94907.25;5090705;28;20048;-68
2023/02/13 09:12:37;;;;;;;67.05;38.03;;;;;;;0.26;100.00;94904.72;5090396;28;20389;-68
2023/02/13 09:15:04;;;;;;;101.13;50.80;;;;;;;0.34;100.00;94899.16;5090480;28;20048;-68
2023/02/13 09:17:31;;;;;;;63.72;37.35;;;;;;;0.39;100.00;94907.22;5090788;28;20117;-68
2023/02/13 09:19:57;;;;;;;65.70;38.00;;;;;;;0.55;100.00;94905.38;5090621;28;20085;-68
2023/02/13 09:22:24;;;;;;;70.80;40.55;;;;;;;0.60;100.00;94904.13;5090419;28;20275;-68
2023/02/13 09:24:51;;;;;;;86.82;47.35;;;;;;;0.82;100.00;94915.28;5090056;28;20168;-68
2023/02/13 09:27:17;;;;;;;84.85;45.50;;;;;;;0.96;100.00;94909.25;5090185;28;20052;-68
2023/02/13 09:29:46;;;;;;;67.85;40.05;;;;;;;1.09;100.00;94910.91;5090274;28;20492;-68
2023/02/13 09:32:12;;;;;;;64.07;37.30;;;;;;;1.06;100.00;94911.94;5089841;28;20089;-68
2023/02/13 09:34:39;;;;;;;63.85;36.17;;;;;;;1.21;100.00;94907.53;5090229;28;20638;-68
2023/02/13 09:37:06;;;;;;;75.55;40.58;;;;;;;1.27;100.00;94894.44;5090270;28;20040;-68
2023/02/13 09:39:32;;;;;;;69.25;38.75;;;;;;;1.49;100.00;94909.78;5090194;28;20048;-69
2023/02/13 09:42:01;;;;;;;69.65;37.80;;;;;;;1.64;100.00;94907.84;5091024;28;20097;-68
2023/02/13 09:44:37;;;;;;;87.90;47.10;;;;;;;1.69;100.00;94899.03;5088557;28;20884;-68
2023/02/13 09:47:10;;;;;;;153.35;72.38;;;;;;;1.85;100.00;94901.22;5064098;28;20044;-68
2023/02/13 09:49:41;;;;;;;87.57;45.90;;;;;;;1.87;100.00;94884.16;5087980;28;20078;-68
2023/02/13 09:52:10;;;;;;;80.05;40.33;;;;;;;2.06;100.00;94898.00;5069444;28;20544;-68
2023/02/13 09:54:36;;;;;;;73.47;39.35;;;;;;;2.09;100.00;94905.38;5085543;28;20113;-68
2023/02/13 09:57:13;;;;;;;65.38;34.22;;;;;;;2.16;100.00;94900.66;5090200;28;20093;-69
2023/02/13 09:59:51;;;;;;;53.17;32.00;;;;;;;1.87;100.00;94899.38;5089597;28;20044;-69
2023/02/13 10:02:41;;;;;;;60.13;33.70;;;;;;;1.84;100.00;94891.19;5089844;28;20036;-68
2023/02/13 10:05:23;;;;;;;60.10;34.33;;;;;;;1.57;100.00;94899.91;5090008;28;20361;-68
2023/02/13 10:07:57;;;;;;;58.63;34.88;;;;;;;1.47;100.00;94892.16;5075824;28;20103;-68
2023/02/13 10:10:32;;;;;;;58.42;32.13;;;;;;;1.60;100.00;94882.78;5089429;28;20048;-68
2023/02/13 10:13:13;;;;;;;;;;;;;;;1.81;100.00;94874.47;5090306;28;20048;-68
2023/02/13 10:15:48;;;;;;;59.17;33.47;;;;;;;1.77;100.00;94870.59;5089176;28;19972;-68
2023/02/13 10:18:21;;;;;;;66.45;34.97;;;;;;;1.71;100.00;94863.44;5089822;28;20074;-68
2023/02/13 10:20:52;;;;;;;54.85;31.70;;;;;;;1.53;100.00;94866.38;5089487;28;20105;-68
2023/02/13 10:23:25;;;;;;;62.58;34.72;;;;;;;1.55;100.00;94861.22;5089481;28;20089;-68
2023/02/13 10:25:56;;;;;;;74.82;37.75;;;;;;;1.65;100.00;94852.03;5089155;28;20055;-68
2023/02/13 10:28:32;;;;;;;56.80;31.80;;;;;;;1.62;100.00;94859.03;5089484;28;20104;-68
2023/02/13 10:31:05;;;;;;;61.92;34.38;;;;;;;1.80;100.00;94859.41;5089476;28;20040;-68
2023/02/13 10:33:38;;;;;;;65.78;36.08;;;;;;;1.91;100.00;94851.00;5089113;28;20044;-68
2023/02/13 10:36:14;;;;;;;61.55;33.75;;;;;;;1.87;100.00;94846.16;5089273;28;20109;-68
2023/02/13 10:38:44;;;;;;;58.83;34.85;;;;;;;1.86;100.00;94852.16;5089397;28;20043;-68
2023/02/13 10:41:25;;;;;;;63.13;33.20;;;;;;;1.90;100.00;94840.03;5088940;28;20467;-68
2023/02/13 10:44:15;;;;;;;72.50;36.75;;;;;;;2.00;100.00;94837.66;5065202;28;20040;-68
2023/02/13 10:46:51;;;;;;;64.82;36.47;;;;;;;2.18;100.00;94832.09;5089085;28;20393;-68
2023/02/13 10:49:46;;;;;;;118.72;52.03;;;;;;;2.30;100.00;94826.06;5088979;28;20082;-68
2023/02/13 10:52:25;;;;;;;131.40;56.92;;;;;;;2.39;100.00;94827.91;5069696;28;20066;-68
2023/02/13 10:55:03;;;;;;;79.50;40.35;;;;;;;2.47;100.00;94819.72;5088635;28;20082;-68
2023/02/13 10:57:53;;;;;;;326.75;130.00;;;;;;;2.58;100.00;94811.25;5088882;28;20050;-68
2023/02/13 11:00:29;;;;;;;199.98;79.93;;;;;;;2.57;100.00;94799.50;5089197;28;20125;-68
2023/02/13 11:02:57;;;;;;;152.05;63.55;;;;;;;2.71;100.00;94806.03;5088794;28;20079;-68
2023/02/13 11:05:30;;;;;;;68.55;38.13;;;;;;;2.65;100.00;94817.44;5088989;28;20055;-68
2023/02/13 11:07:57;;;;;;;83.57;41.80;;;;;;;2.50;100.00;94814.38;5088973;28;20048;-68
2023/02/13 11:10:26;;;;;;;78.00;36.72;;;;;;;2.32;100.00;94813.28;5075539;28;20086;-68
2023/02/13 11:12:54;;;;;;;67.90;36.45;;;;;;;2.49;100.00;94804.34;5076226;28;20044;-68
2023/02/13 11:15:25;;;;;;;114.65;52.05;;;;;;;2.65;100.00;94797.16;5088241;28;20188;-68
2023/02/13 11:17:55;;;;;;;68.63;35.97;;;;;;;2.73;100.00;94786.38;5076529;28;20500;-68
2023/02/13 11:20:33;;;;;;;67.47;35.10;;;;;;;2.80;100.00;94790.06;5089811;28;20044;-68
2023/02/13 11:23:28;;;;;;;56.22;31.67;;;;;;;2.90;100.00;94779.16;5092854;28;20097;-68
2023/02/13 11:25:59;;;;;;;59.35;31.60;;;;;;;2.92;100.00;94783.19;5093007;28;20066;-68
2023/02/13 11:28:28;;;;;;;57.15;33.15;;;;;;;2.96;100.00;94781.22;5092749;28;20068;-68
2023/02/13 11:31:09;;;;;;;58.97;32.13;;;;;;;2.98;100.00;94770.94;5092457;28;20040;-68
2023/02/13 11:33:36;;;;;;;58.47;32.50;;;;;;;3.01;100.00;94774.03;5092549;28;20044;-68
2023/02/13 11:36:10;;;;;;;58.67;32.08;;;;;;;3.07;100.00;94768.44;5092571;28;20064;-68
2023/02/13 11:38:37;;;;;;;98.68;46.38;;;;;;;3.15;100.00;94764.50;5092399;28;20047;-68
2023/02/13 11:41:08;;;;;;;98.72;46.72;;;;;;;3.28;100.00;94757.47;5092231;28;20507;-68
2023/02/13 11:43:37;;;;;;;83.28;41.63;;;;;;;3.31;100.00;94756.44;5092181;28;20478;-68
2023/02/13 11:46:07;;;;;;;55.92;30.55;;;;;;;3.38;100.00;94759.28;5092159;28;20055;-68
2023/02/13 11:48:34;;;;;;;57.65;30.90;;;;;;;3.43;100.00;94747.00;5092194;28;20044;-68
2023/02/13 11:51:02;;;;;;;93.72;48.40;;;;;;;3.40;100.00;94742.16;5092311;28;20052;-68
2023/02/13 11:53:36;;;;;;;60.97;34.50;;;;;;;3.47;100.00;94748.34;5092234;28;20093;-68
2023/02/13 11:56:07;;;;;;;50.10;29.88;;;;;;;3.47;100.00;94741.53;5092271;28;20101;-68
2023/02/13 11:58:35;;;;;;;51.88;27.50;;;;;;;3.61;100.00;94732.75;5092555;28;20048;-68
2023/02/13 12:01:11;;;;;;;59.67;31.15;;;;;;;3.59;100.00;94716.84;5092056;28;20101;-68
2023/02/13 12:03:41;;;;;;;50.53;27.77;;;;;;;3.65;100.00;94718.06;5092661;28;20460;-68
2023/02/13 12:06:13;;;;;;;55.50;30.35;;;;;;;3.78;100.00;94711.91;5092047;28;20093;-68
2023/02/13 12:08:43;;;;;;;52.05;29.67;;;;;;;3.82;100.00;94703.94;5092182;28;20411;-68